Time;durP1;ratioP1;P1;durP2;ratioP2;P2;SDS_P1;SDS_P2;PMS_P1;PMS_P2;Temp;Humidity;BMP_temperature;BMP_pressure;BME280_temperature;BME280_humidity;BME280_pressure;Samples;Min_cycle;Max_cycle;Signal;HPM_P1;HPM_P2
2021/12/29 00:00:52;;;;;;;;;4.33;3.00;;;;;;;;4977152;28;45267;-48
2021/12/29 00:03:17;;;;;;;;;7.00;4.00;;;;;;;;4976903;28;45908;-47
2021/12/29 00:05:43;;;;;;;;;10.00;4.00;;;;;;;;4976844;28;45347;-52
2021/12/29 00:08:08;;;;;;;;;7.33;4.67;;;;;;;;4977169;28;45379;-52
2021/12/29 00:10:33;;;;;;;;;9.00;5.67;;;;;;;;4976472;28;45414;-50
2021/12/29 00:13:00;;;;;;;;;7.33;3.33;;;;;;;;4976528;28;46005;-48
2021/12/29 00:15:27;;;;;;;;;4.00;4.00;;;;;;;;4976604;28;45560;-49
2021/12/29 00:17:53;;;;;;;;;6.00;5.00;;;;;;;;4976889;28;45306;-49
2021/12/29 00:20:19;;;;;;;;;5.67;4.67;;;;;;;;4975995;28;45357;-49
2021/12/29 00:22:45;;;;;;;;;3.00;3.00;;;;;;;;4976798;28;46133;-54
2021/12/29 00:25:10;;;;;;;;;9.00;5.00;;;;;;;;4976779;28;45435;-50
2021/12/29 00:27:36;;;;;;;;;6.67;4.67;;;;;;;;4976763;28;45329;-51
2021/12/29 00:30:01;;;;;;;;;10.00;8.00;;;;;;;;4976620;28;45356;-49
2021/12/29 00:32:27;;;;;;;;;8.67;6.33;;;;;;;;4976092;28;46235;-48
2021/12/29 00:34:52;;;;;;;;;9.00;6.00;;;;;;;;4976581;28;45391;-51
2021/12/29 00:37:17;;;;;;;;;9.67;6.67;;;;;;;;4976597;28;45419;-50
2021/12/29 00:39:43;;;;;;;;;8.33;6.00;;;;;;;;4976672;28;45314;-49
2021/12/29 00:42:08;;;;;;;;;8.00;3.67;;;;;;;;4975822;28;46156;-49
2021/12/29 00:44:34;;;;;;;;;6.67;4.67;;;;;;;;4976261;28;45409;-50
2021/12/29 00:46:59;;;;;;;;;7.67;3.00;;;;;;;;4976691;28;45269;-49
2021/12/29 00:49:31;;;;;;;;;11.00;6.33;;;;;;;;4976379;28;45484;-47
2021/12/29 00:51:57;;;;;;;;;6.00;5.00;;;;;;;;4976321;28;45391;-48
2021/12/29 00:54:22;;;;;;;;;6.33;6.33;;;;;;;;4975829;28;45389;-48
2021/12/29 00:56:47;;;;;;;;;11.00;7.33;;;;;;;;4976356;28;45422;-48
2021/12/29 00:59:13;;;;;;;;;9.33;5.00;;;;;;;;4976280;28;45450;-48
2021/12/29 01:01:38;;;;;;;;;9.67;9.00;;;;;;;;4976187;28;45545;-49
2021/12/29 01:04:04;;;;;;;;;8.67;5.67;;;;;;;;4977856;28;45490;-47
2021/12/29 01:06:29;;;;;;;;;5.00;5.00;;;;;;;;4978460;28;45525;-52
2021/12/29 01:08:54;;;;;;;;;4.00;4.00;;;;;;;;4979514;28;45523;-48
2021/12/29 01:11:20;;;;;;;;;9.33;4.00;;;;;;;;4979414;28;46183;-47
2021/12/29 01:13:48;;;;;;;;;8.33;6.33;;;;;;;;4979396;28;45388;-47
2021/12/29 01:19:10;;;;;;;;;5.00;4.33;;;;;;;;4979843;28;45247;-49
2021/12/29 01:21:36;;;;;;;;;10.33;7.67;;;;;;;;4979142;28;45487;-49
2021/12/29 01:24:02;;;;;;;;;6.33;4.00;;;;;;;;4979553;28;45435;-46
2021/12/29 01:26:27;;;;;;;;;6.33;4.00;;;;;;;;4979099;28;45430;-48
2021/12/29 01:28:53;;;;;;;;;8.33;5.00;;;;;;;;4979388;28;45403;-48
2021/12/29 01:31:18;;;;;;;;;7.33;6.00;;;;;;;;4979175;28;45571;-49
2021/12/29 01:33:43;;;;;;;;;9.67;8.00;;;;;;;;4978028;28;45393;-48
2021/12/29 01:36:08;;;;;;;;;7.67;6.33;;;;;;;;4979357;28;45476;-48
2021/12/29 01:38:34;;;;;;;;;4.67;4.33;;;;;;;;4978929;28;45462;-46
2021/12/29 01:40:59;;;;;;;;;8.33;6.33;;;;;;;;4979454;28;45386;-47
2021/12/29 01:43:24;;;;;;;;;5.67;5.67;;;;;;;;4979127;28;45601;-46
2021/12/29 01:45:49;;;;;;;;;8.00;5.00;;;;;;;;4978208;28;45462;-46
2021/12/29 01:48:18;;;;;;;;;4.33;4.33;;;;;;;;4978872;28;45319;-46
2021/12/29 01:50:48;;;;;;;;;7.33;5.33;;;;;;;;4978980;28;45321;-50
2021/12/29 01:53:22;;;;;;;;;6.00;4.00;;;;;;;;4977703;28;45477;-46
2021/12/29 01:55:47;;;;;;;;;6.67;6.00;;;;;;;;4979161;28;45382;-49
2021/12/29 01:58:12;;;;;;;;;6.00;4.00;;;;;;;;4979141;28;45312;-49
2021/12/29 02:00:38;;;;;;;;;8.00;4.00;;;;;;;;4978432;28;45319;-47
2021/12/29 02:03:03;;;;;;;;;5.00;5.00;;;;;;;;4978968;28;45334;-48
2021/12/29 02:05:28;;;;;;;;;7.33;6.00;;;;;;;;4979146;28;45327;-50
2021/12/29 02:07:54;;;;;;;;;6.33;5.00;;;;;;;;4978953;28;45631;-50
2021/12/29 02:10:22;;;;;;;;;9.00;5.33;;;;;;;;4976805;28;45385;-50
2021/12/29 02:12:47;;;;;;;;;8.67;6.00;;;;;;;;4978764;28;45285;-52
2021/12/29 02:15:14;;;;;;;;;8.00;5.00;;;;;;;;4977720;28;45486;-47
2021/12/29 02:17:39;;;;;;;;;4.33;4.00;;;;;;;;4977395;28;45293;-52
2021/12/29 02:20:06;;;;;;;;;4.00;3.33;;;;;;;;4978375;28;45252;-48
2021/12/29 02:22:42;;;;;;;;;8.00;6.33;;;;;;;;4978054;28;45329;-50
2021/12/29 02:27:43;;;;;;;;;6.00;4.00;;;;;;;;4978758;28;45305;-47
2021/12/29 02:30:09;;;;;;;;;6.00;3.00;;;;;;;;4978269;28;45471;-48
2021/12/29 02:32:34;;;;;;;;;6.00;5.00;;;;;;;;4977743;28;45463;-47
2021/12/29 02:35:00;;;;;;;;;11.33;4.33;;;;;;;;4978558;28;45465;-48
2021/12/29 02:37:25;;;;;;;;;7.33;4.00;;;;;;;;4978554;28;45365;-47
2021/12/29 02:39:52;;;;;;;;;3.67;3.67;;;;;;;;4978461;28;45874;-47
2021/12/29 02:42:19;;;;;;;;;4.67;4.67;;;;;;;;4977200;28;45342;-47
2021/12/29 02:44:45;;;;;;;;;4.67;4.67;;;;;;;;4977534;28;45360;-48
2021/12/29 02:47:11;;;;;;;;;9.33;4.33;;;;;;;;4976993;28;45263;-50
2021/12/29 02:49:37;;;;;;;;;6.00;4.67;;;;;;;;4978045;28;46127;-50
2021/12/29 02:52:02;;;;;;;;;7.33;3.00;;;;;;;;4978307;28;45286;-47
2021/12/29 02:54:27;;;;;;;;;5.33;4.00;;;;;;;;4977847;28;45308;-47
2021/12/29 02:56:55;;;;;;;;;5.33;4.67;;;;;;;;4978344;28;45540;-47
2021/12/29 02:59:21;;;;;;;;;7.67;5.67;;;;;;;;4977795;28;46292;-48
2021/12/29 03:01:47;;;;;;;;;4.33;4.33;;;;;;;;4977737;28;45369;-48
2021/12/29 03:04:13;;;;;;;;;5.00;3.67;;;;;;;;4977144;28;45369;-46
2021/12/29 03:06:39;;;;;;;;;4.00;3.00;;;;;;;;4977442;28;45273;-49
2021/12/29 03:09:05;;;;;;;;;5.67;4.33;;;;;;;;4977727;28;45230;-49
2021/12/29 03:11:30;;;;;;;;;5.67;4.33;;;;;;;;4978069;28;45623;-48
2021/12/29 03:13:55;;;;;;;;;5.67;4.00;;;;;;;;4977910;28;45301;-48
2021/12/29 03:16:20;;;;;;;;;7.00;3.00;;;;;;;;4977609;28;45388;-49
2021/12/29 03:18:46;;;;;;;;;5.67;4.33;;;;;;;;4976591;28;46093;-49
2021/12/29 03:21:11;;;;;;;;;3.00;3.00;;;;;;;;4977523;28;45518;-47
2021/12/29 03:23:38;;;;;;;;;3.33;3.33;;;;;;;;4978010;28;45392;-47
2021/12/29 03:26:03;;;;;;;;;5.00;5.00;;;;;;;;4977491;28;45500;-48
2021/12/29 03:28:29;;;;;;;;;5.00;4.00;;;;;;;;4976891;28;45995;-47
2021/12/29 03:30:56;;;;;;;;;5.67;4.67;;;;;;;;4977764;28;45383;-48
2021/12/29 03:33:22;;;;;;;;;5.00;3.00;;;;;;;;4977537;28;45517;-51
2021/12/29 03:35:49;;;;;;;;;2.33;2.00;;;;;;;;4964729;28;45247;-52
2021/12/29 03:38:19;;;;;;;;;4.33;4.00;;;;;;;;4955713;28;46833;-51
2021/12/29 03:40:44;;;;;;;;;3.00;3.00;;;;;;;;4957881;28;45278;-47
2021/12/29 03:43:10;;;;;;;;;8.00;3.33;;;;;;;;4958076;28;45452;-48
2021/12/29 03:45:37;;;;;;;;;9.33;5.00;;;;;;;;4958113;28;45183;-49
2021/12/29 03:48:03;;;;;;;;;4.33;4.00;;;;;;;;4957746;28;45306;-48
2021/12/29 03:50:28;;;;;;;;;3.00;3.00;;;;;;;;4957181;28;45416;-48
2021/12/29 03:52:53;;;;;;;;;4.00;3.33;;;;;;;;4957981;28;45346;-47
2021/12/29 03:55:18;;;;;;;;;4.33;2.00;;;;;;;;4957842;28;45396;-50
2021/12/29 03:57:43;;;;;;;;;6.00;4.00;;;;;;;;4957757;28;46281;-48
2021/12/29 04:00:12;;;;;;;;;2.00;2.00;;;;;;;;4957163;28;45362;-48
2021/12/29 04:02:38;;;;;;;;;7.67;3.00;;;;;;;;4958004;28;45353;-48
2021/12/29 04:05:04;;;;;;;;;4.00;3.00;;;;;;;;4957843;28;45483;-47
2021/12/29 04:07:31;;;;;;;;;5.67;2.00;;;;;;;;4957568;28;45345;-48
2021/12/29 04:09:56;;;;;;;;;4.33;3.00;;;;;;;;4957423;28;45384;-51
2021/12/29 04:12:21;;;;;;;;;3.33;3.33;;;;;;;;4957071;28;45640;-49
2021/12/29 04:14:47;;;;;;;;;4.00;4.00;;;;;;;;4957217;28;45537;-49
2021/12/29 04:17:13;;;;;;;;;1.67;1.67;;;;;;;;4956643;28;46145;-48
2021/12/29 04:22:22;;;;;;;;;5.33;3.00;;;;;;;;4956908;28;45306;-48
2021/12/29 04:24:49;;;;;;;;;2.67;2.67;;;;;;;;4957509;28;45440;-47
2021/12/29 04:27:14;;;;;;;;;4.00;3.67;;;;;;;;4957276;28;45351;-48
2021/12/29 04:29:40;;;;;;;;;3.00;2.00;;;;;;;;4955859;28;45345;-50
2021/12/29 04:32:05;;;;;;;;;3.33;3.00;;;;;;;;4957495;28;45231;-49
2021/12/29 04:34:30;;;;;;;;;6.67;4.00;;;;;;;;4957025;28;45626;-49
2021/12/29 04:36:55;;;;;;;;;5.00;5.00;;;;;;;;4957149;28;46005;-51
2021/12/29 04:39:20;;;;;;;;;4.00;4.00;;;;;;;;4956542;28;45254;-47
2021/12/29 04:41:46;;;;;;;;;5.00;4.00;;;;;;;;4957397;28;45380;-53
2021/12/29 04:44:11;;;;;;;;;3.00;3.00;;;;;;;;4956631;28;45513;-51
2021/12/29 04:46:39;;;;;;;;;3.67;2.67;;;;;;;;4956929;28;45290;-49
2021/12/29 04:49:05;;;;;;;;;3.00;1.00;;;;;;;;4957095;28;45353;-48
2021/12/29 04:51:35;;;;;;;;;2.33;1.33;;;;;;;;4957127;28;45483;-52
2021/12/29 04:54:02;;;;;;;;;4.00;2.67;;;;;;;;4957092;28;45333;-49
2021/12/29 04:56:28;;;;;;;;;3.00;3.00;;;;;;;;4956232;28;45375;-48
2021/12/29 04:58:53;;;;;;;;;3.67;2.67;;;;;;;;4956905;28;45341;-48
2021/12/29 05:01:18;;;;;;;;;2.00;2.00;;;;;;;;4957045;28;45472;-47
2021/12/29 05:03:44;;;;;;;;;3.00;2.00;;;;;;;;4956905;28;45321;-47
2021/12/29 05:08:36;;;;;;;;;2.33;2.00;;;;;;;;4956605;28;45834;-49
2021/12/29 05:11:02;;;;;;;;;4.67;4.67;;;;;;;;4956960;28;45369;-48
2021/12/29 05:13:29;;;;;;;;;3.33;2.00;;;;;;;;4955282;28;45299;-47
2021/12/29 05:15:55;;;;;;;;;6.00;3.00;;;;;;;;4956559;28;46057;-47
2021/12/29 05:18:21;;;;;;;;;5.00;3.67;;;;;;;;4955984;28;45473;-47
2021/12/29 05:20:46;;;;;;;;;5.00;4.00;;;;;;;;4956569;28;45345;-51
2021/12/29 05:23:11;;;;;;;;;4.67;3.67;;;;;;;;4956704;28;45385;-50
2021/12/29 05:25:37;;;;;;;;;8.00;4.33;;;;;;;;4956540;28;45407;-47
2021/12/29 05:28:02;;;;;;;;;4.00;3.00;;;;;;;;4956362;28;45356;-52
2021/12/29 05:30:28;;;;;;;;;8.00;8.00;;;;;;;;4956683;28;45504;-50
2021/12/29 05:32:53;;;;;;;;;5.00;4.00;;;;;;;;4956719;28;45497;-49
2021/12/29 05:35:18;;;;;;;;;4.67;4.67;;;;;;;;4956303;28;46038;-51
2021/12/29 05:37:44;;;;;;;;;5.00;5.00;;;;;;;;4956411;28;45394;-50
2021/12/29 05:40:10;;;;;;;;;3.33;3.33;;;;;;;;4956254;28;45324;-50
2021/12/29 05:42:35;;;;;;;;;4.00;4.00;;;;;;;;4956008;28;45536;-53
2021/12/29 05:45:04;;;;;;;;;6.00;5.00;;;;;;;;4956146;28;45375;-50
2021/12/29 05:47:30;;;;;;;;;7.67;5.67;;;;;;;;4956478;28;45246;-50
2021/12/29 05:49:55;;;;;;;;;6.00;6.00;;;;;;;;4956348;28;45294;-51
2021/12/29 05:52:20;;;;;;;;;7.67;5.00;;;;;;;;4959725;28;45179;-47
2021/12/29 05:54:45;;;;;;;;;5.00;5.00;;;;;;;;4959446;28;46646;-48
2021/12/29 05:57:11;;;;;;;;;4.00;4.00;;;;;;;;4959637;28;45312;-48
2021/12/29 05:59:36;;;;;;;;;4.33;4.33;;;;;;;;4959740;28;45416;-48
2021/12/29 06:02:01;;;;;;;;;5.33;4.67;;;;;;;;4959332;28;45400;-49
2021/12/29 06:04:26;;;;;;;;;4.00;3.67;;;;;;;;4959352;28;46059;-50
2021/12/29 06:06:52;;;;;;;;;5.67;4.33;;;;;;;;4959251;28;45480;-47
2021/12/29 06:09:17;;;;;;;;;5.00;4.33;;;;;;;;4959324;28;45305;-50
2021/12/29 06:11:42;;;;;;;;;4.00;4.00;;;;;;;;4959237;28;45323;-48
2021/12/29 06:14:07;;;;;;;;;5.33;5.33;;;;;;;;4959044;28;46642;-50
2021/12/29 06:16:32;;;;;;;;;3.67;3.67;;;;;;;;4959413;28;45362;-48
2021/12/29 06:18:58;;;;;;;;;5.00;4.00;;;;;;;;4959353;28;45368;-50
2021/12/29 06:21:23;;;;;;;;;6.00;4.00;;;;;;;;4959244;28;45517;-49
2021/12/29 06:23:48;;;;;;;;;3.00;3.00;;;;;;;;4957222;28;45460;-47
2021/12/29 06:26:14;;;;;;;;;4.00;2.33;;;;;;;;4959176;28;45480;-48
2021/12/29 06:28:40;;;;;;;;;6.33;5.00;;;;;;;;4959146;28;45226;-50
2021/12/29 06:31:05;;;;;;;;;4.00;4.00;;;;;;;;4957757;28;45271;-48
2021/12/29 06:33:30;;;;;;;;;4.33;4.33;;;;;;;;4958589;28;46070;-51
2021/12/29 06:35:56;;;;;;;;;6.00;4.00;;;;;;;;4958732;28;45255;-46
2021/12/29 06:38:22;;;;;;;;;4.00;4.00;;;;;;;;4958807;28;45452;-47
2021/12/29 06:40:47;;;;;;;;;4.33;4.33;;;;;;;;4957770;28;45378;-48
2021/12/29 06:43:12;;;;;;;;;5.33;5.33;;;;;;;;4958819;28;46172;-48
2021/12/29 06:45:37;;;;;;;;;4.33;4.33;;;;;;;;4958370;28;45561;-49
2021/12/29 06:48:03;;;;;;;;;7.33;6.33;;;;;;;;4959011;28;45350;-47
2021/12/29 06:50:28;;;;;;;;;6.00;4.67;;;;;;;;4958806;28;45495;-47
2021/12/29 06:52:54;;;;;;;;;5.67;4.00;;;;;;;;4958728;28;45553;-46
2021/12/29 06:55:19;;;;;;;;;8.67;8.67;;;;;;;;4958729;28;45409;-47
2021/12/29 06:57:44;;;;;;;;;8.33;7.33;;;;;;;;4973270;28;45446;-48
2021/12/29 07:00:10;;;;;;;;;6.67;5.00;;;;;;;;4958895;28;45528;-48
2021/12/29 07:02:36;;;;;;;;;7.67;5.00;;;;;;;;4957956;28;46087;-47
2021/12/29 07:05:01;;;;;;;;;4.33;4.00;;;;;;;;4958426;28;45358;-47
2021/12/29 07:07:26;;;;;;;;;5.00;5.00;;;;;;;;4958041;28;45251;-55
2021/12/29 07:09:51;;;;;;;;;6.33;5.00;;;;;;;;4958533;28;45547;-55
2021/12/29 07:12:19;;;;;;;;;5.00;3.67;;;;;;;;4958449;28;46310;-53
2021/12/29 07:14:44;;;;;;;;;6.33;6.33;;;;;;;;4958557;28;45410;-54
2021/12/29 07:17:09;;;;;;;;;5.00;5.00;;;;;;;;4958460;28;45373;-53
2021/12/29 07:19:35;;;;;;;;;4.00;4.00;;;;;;;;4958031;28;45689;-52
2021/12/29 07:22:01;;;;;;;;;7.33;7.33;;;;;;;;4958210;28;45317;-52
2021/12/29 07:24:27;;;;;;;;;6.67;5.67;;;;;;;;4958605;28;45279;-54
2021/12/29 07:26:52;;;;;;;;;6.33;6.33;;;;;;;;4958630;28;45262;-53
2021/12/29 07:29:17;;;;;;;;;8.00;6.33;;;;;;;;4957855;28;45397;-53
2021/12/29 07:31:43;;;;;;;;;4.33;4.33;;;;;;;;4958159;28;45147;-59
2021/12/29 07:34:08;;;;;;;;;8.00;8.00;;;;;;;;4956993;28;45262;-46
2021/12/29 07:36:33;;;;;;;;;6.33;6.33;;;;;;;;4958270;28;45313;-50
2021/12/29 07:38:59;;;;;;;;;6.33;4.33;;;;;;;;4958128;28;45533;-53
2021/12/29 07:41:24;;;;;;;;;5.33;5.00;;;;;;;;4957373;28;46396;-52
2021/12/29 07:43:51;;;;;;;;;4.00;4.00;;;;;;;;4957972;28;45234;-49
2021/12/29 07:46:17;;;;;;;;;4.67;4.67;;;;;;;;4958059;28;45476;-52
2021/12/29 07:48:42;;;;;;;;;4.67;4.67;;;;;;;;4956616;28;45459;-51
2021/12/29 07:51:07;;;;;;;;;5.00;5.00;;;;;;;;4957373;28;46659;-50
2021/12/29 07:53:35;;;;;;;;;8.00;8.00;;;;;;;;4957911;28;45473;-51
2021/12/29 07:56:00;;;;;;;;;5.00;5.00;;;;;;;;4958104;28;45529;-54
2021/12/29 07:58:26;;;;;;;;;6.67;5.00;;;;;;;;4957427;28;45389;-54
2021/12/29 08:00:51;;;;;;;;;7.67;7.67;;;;;;;;4956526;28;46642;-50
2021/12/29 08:03:17;;;;;;;;;5.67;4.33;;;;;;;;4957332;28;45363;-51
2021/12/29 08:05:43;;;;;;;;;7.00;5.67;;;;;;;;4957775;28;45338;-49
2021/12/29 08:08:09;;;;;;;;;6.33;6.33;;;;;;;;4957599;28;45325;-48
2021/12/29 08:10:34;;;;;;;;;5.00;5.00;;;;;;;;4940021;28;45533;-48
2021/12/29 08:13:00;;;;;;;;;8.33;8.33;;;;;;;;4955936;28;45359;-50
2021/12/29 08:15:25;;;;;;;;;11.33;10.00;;;;;;;;4957767;28;45425;-48
2021/12/29 08:17:51;;;;;;;;;5.67;5.67;;;;;;;;4958018;28;45308;-47
2021/12/29 08:20:16;;;;;;;;;6.67;6.67;;;;;;;;4957137;28;45328;-53
2021/12/29 08:22:41;;;;;;;;;8.00;8.00;;;;;;;;4957520;28;45409;-51
2021/12/29 08:25:07;;;;;;;;;9.33;8.00;;;;;;;;4957045;28;45306;-53
2021/12/29 08:27:33;;;;;;;;;9.33;9.33;;;;;;;;4957659;28;45527;-49
2021/12/29 08:29:58;;;;;;;;;10.33;9.33;;;;;;;;4957284;28;45325;-52
2021/12/29 08:32:24;;;;;;;;;6.33;6.33;;;;;;;;4957175;28;45539;-54
2021/12/29 08:34:49;;;;;;;;;8.33;5.67;;;;;;;;4957245;28;45289;-52
2021/12/29 08:37:14;;;;;;;;;6.33;6.33;;;;;;;;4957251;28;45310;-52
2021/12/29 08:39:39;;;;;;;;;6.00;6.00;;;;;;;;4957114;28;46627;-52
2021/12/29 08:42:05;;;;;;;;;8.67;8.33;;;;;;;;4957265;28;45364;-50
2021/12/29 08:44:30;;;;;;;;;8.00;8.00;;;;;;;;4957290;28;45290;-53
2021/12/29 08:46:55;;;;;;;;;8.00;8.00;;;;;;;;4956773;28;45626;-50
2021/12/29 08:49:20;;;;;;;;;9.67;9.00;;;;;;;;4955558;28;48055;-50
2021/12/29 08:51:45;;;;;;;;;8.67;8.67;;;;;;;;4955782;28;45470;-55
2021/12/29 08:54:12;;;;;;;;;9.00;9.00;;;;;;;;4957100;28;45382;-53
2021/12/29 08:56:37;;;;;;;;;8.67;7.67;;;;;;;;4956495;28;45563;-58
2021/12/29 08:59:03;;;;;;;;;8.67;8.67;;;;;;;;4956353;28;45461;-52
2021/12/29 09:01:28;;;;;;;;;9.00;8.00;;;;;;;;4956560;28;45325;-54
2021/12/29 09:03:53;;;;;;;;;8.67;8.00;;;;;;;;4957095;28;45364;-51
2021/12/29 09:06:19;;;;;;;;;10.67;10.00;;;;;;;;4956923;28;44826;-51
2021/12/29 09:08:45;;;;;;;;;8.00;6.33;;;;;;;;4956131;28;45977;-51
2021/12/29 09:11:11;;;;;;;;;7.33;4.67;;;;;;;;4956687;28;45332;-50
2021/12/29 09:13:36;;;;;;;;;6.00;6.00;;;;;;;;4957117;28;45498;-53
2021/12/29 09:16:02;;;;;;;;;7.33;7.33;;;;;;;;4956716;28;45313;-52
2021/12/29 09:18:28;;;;;;;;;5.67;5.00;;;;;;;;4956682;28;46029;-49
2021/12/29 09:20:55;;;;;;;;;6.67;6.67;;;;;;;;4955933;28;45262;-49
2021/12/29 09:23:20;;;;;;;;;10.00;8.33;;;;;;;;4956618;28;45254;-53
2021/12/29 09:25:46;;;;;;;;;8.67;8.67;;;;;;;;4959723;28;45418;-53
2021/12/29 09:28:13;;;;;;;;;5.33;4.00;;;;;;;;4960054;28;46075;-50
2021/12/29 09:30:39;;;;;;;;;9.00;9.00;;;;;;;;4959293;28;45287;-51
2021/12/29 09:33:05;;;;;;;;;7.67;7.67;;;;;;;;4959933;28;45257;-56
2021/12/29 09:35:30;;;;;;;;;8.67;5.00;;;;;;;;4958625;28;45216;-49
2021/12/29 09:37:56;;;;;;;;;8.00;8.00;;;;;;;;4959841;28;45581;-51
2021/12/29 09:40:22;;;;;;;;;8.33;6.67;;;;;;;;4959994;28;45167;-50
2021/12/29 09:42:48;;;;;;;;;7.33;7.33;;;;;;;;4959496;28;45326;-47
2021/12/29 09:45:16;;;;;;;;;8.00;8.00;;;;;;;;4959731;28;45516;-48
2021/12/29 09:47:41;;;;;;;;;8.00;8.00;;;;;;;;4959600;28;45435;-53
2021/12/29 09:50:08;;;;;;;;;11.00;9.33;;;;;;;;4959174;28;45409;-52
2021/12/29 09:52:34;;;;;;;;;8.00;8.00;;;;;;;;4959065;28;45250;-54
2021/12/29 09:55:04;;;;;;;;;11.33;11.33;;;;;;;;4959529;28;45345;-52
2021/12/29 09:57:29;;;;;;;;;12.67;11.33;;;;;;;;4959424;28;45326;-51
2021/12/29 09:59:54;;;;;;;;;10.67;10.67;;;;;;;;4959079;28;45269;-53
2021/12/29 10:02:20;;;;;;;;;10.33;9.00;;;;;;;;4959351;28;45254;-52
2021/12/29 10:04:45;;;;;;;;;9.00;9.00;;;;;;;;4958778;28;45321;-60
2021/12/29 10:07:12;;;;;;;;;11.33;11.33;;;;;;;;4959218;28;46204;-56
2021/12/29 10:09:37;;;;;;;;;11.67;11.67;;;;;;;;4959028;28;45202;-57
2021/12/29 10:12:07;;;;;;;;;8.67;8.67;;;;;;;;4959104;28;45270;-54
2021/12/29 10:14:33;;;;;;;;;9.00;9.00;;;;;;;;4958696;28;45553;-52
2021/12/29 10:16:58;;;;;;;;;8.00;8.00;;;;;;;;4958674;28;45975;-55
2021/12/29 10:19:23;;;;;;;;;6.33;5.33;;;;;;;;4958729;28;45388;-54
2021/12/29 10:21:49;;;;;;;;;9.67;9.67;;;;;;;;4959212;28;45388;-49
2021/12/29 10:24:19;;;;;;;;;11.00;11.00;;;;;;;;4957174;28;45416;-51
2021/12/29 10:26:46;;;;;;;;;10.00;9.00;;;;;;;;4958211;28;46205;-50
2021/12/29 10:29:12;;;;;;;;;10.33;10.33;;;;;;;;4958670;28;45282;-54
2021/12/29 10:31:40;;;;;;;;;9.67;9.33;;;;;;;;4959189;28;45335;-54
2021/12/29 10:34:07;;;;;;;;;9.67;9.33;;;;;;;;4958619;28;45342;-54
2021/12/29 10:36:36;;;;;;;;;10.67;10.67;;;;;;;;4957294;28;45245;-54
2021/12/29 10:39:07;;;;;;;;;9.00;9.00;;;;;;;;4958662;28;45456;-55
2021/12/29 10:41:42;;;;;;;;;26.67;26.67;;;;;;;;4958759;28;45385;-55
2021/12/29 10:44:07;;;;;;;;;11.00;11.00;;;;;;;;4958683;28;45237;-59
2021/12/29 10:46:33;;;;;;;;;3.00;3.00;;;;;;;;4958421;28;45288;-56
2021/12/29 10:49:00;;;;;;;;;3.67;3.67;;;;;;;;4958090;28;45243;-53
2021/12/29 10:51:30;;;;;;;;;3.33;2.33;;;;;;;;4958631;28;45389;-54
2021/12/29 10:54:03;;;;;;;;;2.00;2.00;;;;;;;;4958510;28;45452;-56
2021/12/29 10:56:29;;;;;;;;;1.00;1.00;;;;;;;;4958293;28;45293;-53
2021/12/29 10:58:55;;;;;;;;;1.00;1.00;;;;;;;;4956686;28;45334;-53
2021/12/29 11:01:20;;;;;;;;;0.00;0.00;;;;;;;;4958386;28;45400;-56
2021/12/29 11:03:50;;;;;;;;;0.00;0.00;;;;;;;;4958651;28;45265;-52
2021/12/29 11:06:17;;;;;;;;;0.00;0.00;;;;;;;;4958352;28;45344;-51
2021/12/29 11:08:45;;;;;;;;;0.00;0.00;;;;;;;;4956366;28;45414;-48
2021/12/29 11:11:10;;;;;;;;;1.00;1.00;;;;;;;;4957997;28;45395;-50
2021/12/29 11:13:36;;;;;;;;;1.00;0.00;;;;;;;;4958184;28;45528;-50
2021/12/29 11:16:04;;;;;;;;;0.00;0.00;;;;;;;;4958055;28;46271;-52
2021/12/29 11:18:47;;;;;;;;;1.00;1.00;;;;;;;;4958094;28;45269;-54
2021/12/29 11:21:14;;;;;;;;;0.00;0.00;;;;;;;;4957220;28;45365;-59
2021/12/29 11:23:41;;;;;;;;;0.00;0.00;;;;;;;;4958231;28;45232;-54
2021/12/29 11:26:11;;;;;;;;;0.00;0.00;;;;;;;;4957506;28;45322;-54
2021/12/29 11:28:36;;;;;;;;;0.00;0.00;;;;;;;;4956132;28;45507;-55
2021/12/29 11:31:04;;;;;;;;;1.00;0.00;;;;;;;;4957401;28;45401;-51
2021/12/29 11:33:31;;;;;;;;;0.00;0.00;;;;;;;;4957858;28;45337;-55
2021/12/29 11:35:56;;;;;;;;;0.33;0.00;;;;;;;;4956390;28;48057;-55
2021/12/29 11:38:23;;;;;;;;;1.00;1.00;;;;;;;;4957655;28;45535;-54
2021/12/29 11:40:50;;;;;;;;;0.00;0.00;;;;;;;;4957797;28;45427;-55
2021/12/29 11:43:16;;;;;;;;;1.00;0.00;;;;;;;;4957205;28;45336;-53
2021/12/29 11:45:42;;;;;;;;;0.00;0.00;;;;;;;;4957471;28;45214;-50
2021/12/29 11:48:10;;;;;;;;;0.33;0.33;;;;;;;;4957386;28;45346;-50
2021/12/29 11:50:36;;;;;;;;;1.00;0.00;;;;;;;;4957726;28;45254;-51
2021/12/29 11:53:08;;;;;;;;;0.00;0.00;;;;;;;;4957086;28;45370;-50
2021/12/29 11:55:34;;;;;;;;;0.00;0.00;;;;;;;;4957694;28;46229;-52
2021/12/29 11:58:10;;;;;;;;;0.00;0.00;;;;;;;;4957613;28;45442;-55
2021/12/29 12:00:35;;;;;;;;;1.00;0.00;;;;;;;;4957520;28;45303;-50
2021/12/29 12:03:05;;;;;;;;;0.00;0.00;;;;;;;;4957525;28;45478;-51
2021/12/29 12:05:36;;;;;;;;;1.33;0.33;;;;;;;;4956793;28;45472;-54
2021/12/29 12:08:22;;;;;;;;;1.00;1.00;;;;;;;;4957447;28;45369;-52
2021/12/29 12:10:47;;;;;;;;;0.00;0.00;;;;;;;;4957329;28;45372;-54
2021/12/29 12:13:30;;;;;;;;;1.00;1.00;;;;;;;;4957466;28;45511;-56
2021/12/29 12:16:05;;;;;;;;;1.00;1.00;;;;;;;;4957337;28;45323;-52
2021/12/29 12:18:49;;;;;;;;;1.67;1.67;;;;;;;;4957366;28;45276;-53
2021/12/29 12:21:28;;;;;;;;;1.00;1.00;;;;;;;;4957318;28;45172;-50
2021/12/29 12:23:54;;;;;;;;;6.00;6.00;;;;;;;;4957374;28;45441;-52
2021/12/29 12:26:22;;;;;;;;;2.33;2.33;;;;;;;;4956627;28;45398;-55
2021/12/29 12:28:49;;;;;;;;;1.00;1.00;;;;;;;;4957220;28;45225;-54
2021/12/29 12:31:25;;;;;;;;;1.33;1.33;;;;;;;;4957229;28;45198;-53
2021/12/29 12:33:52;;;;;;;;;2.00;2.00;;;;;;;;4957259;28;45370;-55
2021/12/29 12:36:17;;;;;;;;;0.67;0.67;;;;;;;;4957059;28;45389;-51
2021/12/29 12:38:43;;;;;;;;;1.00;0.00;;;;;;;;4956582;28;45290;-53
2021/12/29 12:41:08;;;;;;;;;0.00;0.00;;;;;;;;4956367;28;45450;-53
2021/12/29 12:43:35;;;;;;;;;0.50;0.50;;;;;;;;4957217;28;45484;-53
2021/12/29 12:46:00;;;;;;;;;0.00;0.00;;;;;;;;4957150;28;45350;-53
2021/12/29 12:48:25;;;;;;;;;0.33;0.33;;;;;;;;4956134;28;45226;-55
2021/12/29 12:50:51;;;;;;;;;3.33;2.00;;;;;;;;4955903;28;45279;-54
2021/12/29 12:53:26;;;;;;;;;0.33;0.33;;;;;;;;4957009;28;45265;-54
2021/12/29 12:55:54;;;;;;;;;2.33;1.00;;;;;;;;4956855;28;47152;-51
2021/12/29 12:58:19;;;;;;;;;2.00;2.00;;;;;;;;4956945;28;45249;-52
2021/12/29 13:00:49;;;;;;;;;0.00;0.00;;;;;;;;4959835;28;45230;-52
2021/12/29 13:03:16;;;;;;;;;2.00;1.33;;;;;;;;4959966;28;45369;-52
2021/12/29 13:05:44;;;;;;;;;3.00;1.00;;;;;;;;4960105;28;45510;-56
2021/12/29 13:08:13;;;;;;;;;0.00;0.00;;;;;;;;4960489;28;45345;-53
2021/12/29 13:10:42;;;;;;;;;1.00;1.00;;;;;;;;4960037;28;45338;-53
2021/12/29 13:13:15;;;;;;;;;1.67;1.00;;;;;;;;4960451;28;45381;-54
2021/12/29 13:15:42;;;;;;;;;1.00;1.00;;;;;;;;4960168;28;45294;-51
2021/12/29 13:18:07;;;;;;;;;0.00;0.00;;;;;;;;4958926;28;45466;-55
2021/12/29 13:20:33;;;;;;;;;0.00;0.00;;;;;;;;4960014;28;45282;-55
2021/12/29 13:22:58;;;;;;;;;1.00;1.00;;;;;;;;4959938;28;45323;-54
2021/12/29 13:25:26;;;;;;;;;0.67;0.67;;;;;;;;4960157;28;46169;-55
2021/12/29 13:28:01;;;;;;;;;0.00;0.00;;;;;;;;4960209;28;45267;-52
2021/12/29 13:30:27;;;;;;;;;0.00;0.00;;;;;;;;4960002;28;45346;-54
2021/12/29 13:32:53;;;;;;;;;0.00;0.00;;;;;;;;4959608;28;45341;-54
2021/12/29 13:35:25;;;;;;;;;0.00;0.00;;;;;;;;4959922;28;45546;-55
2021/12/29 13:37:51;;;;;;;;;1.67;0.67;;;;;;;;4959868;28;45353;-54
2021/12/29 13:40:19;;;;;;;;;0.00;0.00;;;;;;;;4960120;28;45459;-56
2021/12/29 13:42:45;;;;;;;;;0.00;0.00;;;;;;;;4959912;28;45242;-55
2021/12/29 13:45:20;;;;;;;;;0.00;0.00;;;;;;;;4959573;28;45357;-53
2021/12/29 13:47:46;;;;;;;;;0.00;0.00;;;;;;;;4958685;28;45450;-53
2021/12/29 13:50:11;;;;;;;;;1.00;1.00;;;;;;;;4959838;28;45475;-55
2021/12/29 13:52:37;;;;;;;;;0.67;0.67;;;;;;;;4959721;28;45568;-54
2021/12/29 13:55:02;;;;;;;;;0.00;0.00;;;;;;;;4959110;28;46128;-56
2021/12/29 13:57:29;;;;;;;;;0.00;0.00;;;;;;;;4959592;28;45411;-55
2021/12/29 13:59:54;;;;;;;;;0.00;0.00;;;;;;;;4959796;28;45385;-55
2021/12/29 14:02:19;;;;;;;;;0.00;0.00;;;;;;;;4959648;28;45262;-55
2021/12/29 14:04:45;;;;;;;;;0.00;0.00;;;;;;;;4959219;28;46034;-52
2021/12/29 14:07:11;;;;;;;;;2.33;2.33;;;;;;;;4959271;28;45489;-56
2021/12/29 14:09:39;;;;;;;;;3.00;3.00;;;;;;;;4960618;28;45276;-54
2021/12/29 14:12:09;;;;;;;;;0.00;0.00;;;;;;;;4960151;28;45552;-56
2021/12/29 14:14:35;;;;;;;;;0.00;0.00;;;;;;;;4959297;28;46023;-52
2021/12/29 14:17:00;;;;;;;;;0.00;0.00;;;;;;;;4958606;28;45332;-56
2021/12/29 14:19:27;;;;;;;;;0.00;0.00;;;;;;;;4959362;28;45262;-55
2021/12/29 14:21:54;;;;;;;;;0.33;0.33;;;;;;;;4959211;28;45562;-52
2021/12/29 14:24:19;;;;;;;;;1.00;1.00;;;;;;;;4958909;28;45980;-54
2021/12/29 14:26:46;;;;;;;;;4.33;4.00;;;;;;;;4958808;28;45378;-52
2021/12/29 14:29:14;;;;;;;;;2.00;0.67;;;;;;;;4957575;28;45365;-52
2021/12/29 14:31:41;;;;;;;;;0.33;0.33;;;;;;;;4959000;28;45262;-51
2021/12/29 14:34:08;;;;;;;;;0.00;0.00;;;;;;;;4959076;28;45282;-54
2021/12/29 14:36:35;;;;;;;;;0.67;0.67;;;;;;;;4958910;28;45317;-50
2021/12/29 14:39:06;;;;;;;;;0.00;0.00;;;;;;;;4958540;28;45373;-52
2021/12/29 14:41:31;;;;;;;;;0.00;0.00;;;;;;;;4958996;28;45528;-53
2021/12/29 14:43:58;;;;;;;;;0.00;0.00;;;;;;;;4958663;28;46507;-52
2021/12/29 14:46:23;;;;;;;;;0.00;0.00;;;;;;;;4958758;28;45395;-52